sensor_id;sensor_type;location;lat;lon;timestamp;temperature;humidity
53711;DHT22;39605;52.704;6.752;2022-10-16T00:00:45;13.10;99.90
53711;DHT22;39605;52.704;6.752;2022-10-16T00:03:10;13.50;99.90
53711;DHT22;39605;52.704;6.752;2022-10-16T00:05:41;13.20;99.90
53711;DHT22;39605;52.704;6.752;2022-10-16T00:08:08;13.10;99.90
53711;DHT22;39605;52.704;6.752;2022-10-16T00:10:35;13.10;99.90
53711;DHT22;39605;52.704;6.752;2022-10-16T00:13:01;13.20;99.90
53711;DHT22;39605;52.704;6.752;2022-10-16T00:15:27;13.00;99.90
53711;DHT22;39605;52.704;6.752;2022-10-16T00:17:53;13.30;99.90
53711;DHT22;39605;52.704;6.752;2022-10-16T00:20:18;13.00;99.90
53711;DHT22;39605;52.704;6.752;2022-10-16T00:22:44;13.10;99.90
53711;DHT22;39605;52.704;6.752;2022-10-16T00:25:10;13.00;99.90
53711;DHT22;39605;52.704;6.752;2022-10-16T00:27:35;13.60;99.90
53711;DHT22;39605;52.704;6.752;2022-10-16T00:30:02;13.00;99.90
53711;DHT22;39605;52.704;6.752;2022-10-16T00:32:28;13.00;99.90
53711;DHT22;39605;52.704;6.752;2022-10-16T00:34:54;13.30;99.90
53711;DHT22;39605;52.704;6.752;2022-10-16T00:37:20;13.10;99.90
53711;DHT22;39605;52.704;6.752;2022-10-16T00:39:46;13.00;99.90
53711;DHT22;39605;52.704;6.752;2022-10-16T00:42:16;13.10;99.90
53711;DHT22;39605;52.704;6.752;2022-10-16T00:47:24;13.00;99.90
53711;DHT22;39605;52.704;6.752;2022-10-16T00:49:55;12.90;99.90
53711;DHT22;39605;52.704;6.752;2022-10-16T00:52:22;13.50;99.90
53711;DHT22;39605;52.704;6.752;2022-10-16T00:54:49;12.90;99.90
53711;DHT22;39605;52.704;6.752;2022-10-16T00:57:15;12.90;99.90
53711;DHT22;39605;52.704;6.752;2022-10-16T00:59:42;13.00;99.90
53711;DHT22;39605;52.704;6.752;2022-10-16T01:02:11;12.90;99.90
53711;DHT22;39605;52.704;6.752;2022-10-16T01:04:42;13.50;99.90
53711;DHT22;39605;52.704;6.752;2022-10-16T01:07:37;12.90;99.90
53711;DHT22;39605;52.704;6.752;2022-10-16T01:10:26;13.00;99.90
53711;DHT22;39605;52.704;6.752;2022-10-16T01:12:56;12.80;99.90
53711;DHT22;39605;52.704;6.752;2022-10-16T01:15:30;12.80;99.90
53711;DHT22;39605;52.704;6.752;2022-10-16T01:20:37;12.80;99.90
53711;DHT22;39605;52.704;6.752;2022-10-16T01:29:06;12.70;99.90
53711;DHT22;39605;52.704;6.752;2022-10-16T01:31:35;12.70;99.90
53711;DHT22;39605;52.704;6.752;2022-10-16T01:34:05;12.80;99.90
53711;DHT22;39605;52.704;6.752;2022-10-16T01:36:42;12.80;99.90
53711;DHT22;39605;52.704;6.752;2022-10-16T01:39:11;12.80;99.90
53711;DHT22;39605;52.704;6.752;2022-10-16T01:41:46;12.80;99.90
53711;DHT22;39605;52.704;6.752;2022-10-16T01:44:20;12.80;99.90
53711;DHT22;39605;52.704;6.752;2022-10-16T01:46:50;12.70;99.90
53711;DHT22;39605;52.704;6.752;2022-10-16T01:49:17;12.70;99.90
53711;DHT22;39605;52.704;6.752;2022-10-16T01:51:46;12.70;99.90
53711;DHT22;39605;52.704;6.752;2022-10-16T01:54:14;13.00;99.90
53711;DHT22;39605;52.704;6.752;2022-10-16T01:56:42;12.70;99.90
53711;DHT22;39605;52.704;6.752;2022-10-16T01:59:16;12.70;99.90
53711;DHT22;39605;52.704;6.752;2022-10-16T02:01:50;12.70;99.90
53711;DHT22;39605;52.704;6.752;2022-10-16T02:04:33;12.80;99.90
53711;DHT22;39605;52.704;6.752;2022-10-16T02:07:00;12.80;99.90
53711;DHT22;39605;52.704;6.752;2022-10-16T02:09:26;12.80;99.90
53711;DHT22;39605;52.704;6.752;2022-10-16T02:11:56;12.80;99.90
53711;DHT22;39605;52.704;6.752;2022-10-16T02:14:24;12.80;99.90
53711;DHT22;39605;52.704;6.752;2022-10-16T02:16:50;12.80;99.90
53711;DHT22;39605;52.704;6.752;2022-10-16T02:19:17;12.80;99.90
53711;DHT22;39605;52.704;6.752;2022-10-16T02:22:00;12.80;99.90
53711;DHT22;39605;52.704;6.752;2022-10-16T02:27:06;12.80;99.90
53711;DHT22;39605;52.704;6.752;2022-10-16T02:29:42;12.80;99.90
53711;DHT22;39605;52.704;6.752;2022-10-16T02:32:16;12.80;99.90
53711;DHT22;39605;52.704;6.752;2022-10-16T02:34:44;12.90;99.90
53711;DHT22;39605;52.704;6.752;2022-10-16T02:37:11;12.90;99.90
53711;DHT22;39605;52.704;6.752;2022-10-16T02:39:37;12.90;99.90
53711;DHT22;39605;52.704;6.752;2022-10-16T02:42:04;12.90;99.90
53711;DHT22;39605;52.704;6.752;2022-10-16T02:44:29;12.90;99.90
53711;DHT22;39605;52.704;6.752;2022-10-16T02:46:55;13.20;99.90
53711;DHT22;39605;52.704;6.752;2022-10-16T02:49:21;13.10;99.90
53711;DHT22;39605;52.704;6.752;2022-10-16T02:51:46;12.90;99.90
53711;DHT22;39605;52.704;6.752;2022-10-16T02:54:12;13.00;99.90
53711;DHT22;39605;52.704;6.752;2022-10-16T02:56:38;13.30;99.90
53711;DHT22;39605;52.704;6.752;2022-10-16T02:59:04;13.00;99.90
53711;DHT22;39605;52.704;6.752;2022-10-16T03:01:30;13.00;99.90
53711;DHT22;39605;52.704;6.752;2022-10-16T03:03:55;13.00;99.90
53711;DHT22;39605;52.704;6.752;2022-10-16T03:06:21;13.10;99.90
53711;DHT22;39605;52.704;6.752;2022-10-16T03:08:47;13.70;99.90
53711;DHT22;39605;52.704;6.752;2022-10-16T03:11:12;13.20;99.90
53711;DHT22;39605;52.704;6.752;2022-10-16T03:13:38;13.10;99.90
53711;DHT22;39605;52.704;6.752;2022-10-16T03:16:04;13.10;99.90
53711;DHT22;39605;52.704;6.752;2022-10-16T03:18:29;13.20;99.90
53711;DHT22;39605;52.704;6.752;2022-10-16T03:20:55;13.20;99.90
53711;DHT22;39605;52.704;6.752;2022-10-16T03:23:21;13.10;99.90
53711;DHT22;39605;52.704;6.752;2022-10-16T03:25:46;13.20;99.90
53711;DHT22;39605;52.704;6.752;2022-10-16T03:28:12;13.20;99.90
53711;DHT22;39605;52.704;6.752;2022-10-16T03:30:38;13.30;99.90
53711;DHT22;39605;52.704;6.752;2022-10-16T03:33:05;13.20;99.90
53711;DHT22;39605;52.704;6.752;2022-10-16T03:35:31;13.20;99.90
53711;DHT22;39605;52.704;6.752;2022-10-16T03:37:57;13.20;99.90
53711;DHT22;39605;52.704;6.752;2022-10-16T03:40:22;13.20;99.90
53711;DHT22;39605;52.704;6.752;2022-10-16T03:42:48;13.20;99.90
53711;DHT22;39605;52.704;6.752;2022-10-16T03:45:14;13.20;99.90
53711;DHT22;39605;52.704;6.752;2022-10-16T03:47:40;13.30;99.90
53711;DHT22;39605;52.704;6.752;2022-10-16T03:50:06;13.20;99.90
53711;DHT22;39605;52.704;6.752;2022-10-16T03:52:32;13.20;99.90
53711;DHT22;39605;52.704;6.752;2022-10-16T03:54:58;13.20;99.90
53711;DHT22;39605;52.704;6.752;2022-10-16T03:57:24;13.30;99.90
53711;DHT22;39605;52.704;6.752;2022-10-16T03:59:50;13.10;99.90
53711;DHT22;39605;52.704;6.752;2022-10-16T04:02:16;13.10;99.90
53711;DHT22;39605;52.704;6.752;2022-10-16T04:04:42;13.40;99.90
53711;DHT22;39605;52.704;6.752;2022-10-16T04:07:07;13.10;99.90
53711;DHT22;39605;52.704;6.752;2022-10-16T04:09:33;13.50;99.90
53711;DHT22;39605;52.704;6.752;2022-10-16T04:11:59;13.30;99.90
53711;DHT22;39605;52.704;6.752;2022-10-16T04:14:24;13.10;99.90
53711;DHT22;39605;52.704;6.752;2022-10-16T04:16:50;13.30;99.90
53711;DHT22;39605;52.704;6.752;2022-10-16T04:19:16;12.90;99.90
53711;DHT22;39605;52.704;6.752;2022-10-16T04:21:41;13.10;99.90
53711;DHT22;39605;52.704;6.752;2022-10-16T04:24:07;13.00;99.90
53711;DHT22;39605;52.704;6.752;2022-10-16T04:26:33;13.00;99.90
53711;DHT22;39605;52.704;6.752;2022-10-16T04:28:58;12.90;99.90
53711;DHT22;39605;52.704;6.752;2022-10-16T04:31:24;12.90;99.90
53711;DHT22;39605;52.704;6.752;2022-10-16T04:33:50;12.90;99.90
53711;DHT22;39605;52.704;6.752;2022-10-16T04:36:16;12.90;99.90
53711;DHT22;39605;52.704;6.752;2022-10-16T04:38:41;12.90;99.90
53711;DHT22;39605;52.704;6.752;2022-10-16T04:41:08;13.20;99.90
53711;DHT22;39605;52.704;6.752;2022-10-16T04:43:34;12.90;99.90
53711;DHT22;39605;52.704;6.752;2022-10-16T04:46:00;13.10;99.90
53711;DHT22;39605;52.704;6.752;2022-10-16T04:48:26;12.90;99.90
53711;DHT22;39605;52.704;6.752;2022-10-16T04:50:51;12.90;99.90
53711;DHT22;39605;52.704;6.752;2022-10-16T04:53:17;12.90;99.90
53711;DHT22;39605;52.704;6.752;2022-10-16T04:55:43;12.90;99.90
53711;DHT22;39605;52.704;6.752;2022-10-16T04:58:09;12.90;99.90
53711;DHT22;39605;52.704;6.752;2022-10-16T05:00:35;12.90;99.90
53711;DHT22;39605;52.704;6.752;2022-10-16T05:03:01;12.80;99.90
53711;DHT22;39605;52.704;6.752;2022-10-16T05:05:31;13.20;99.90
53711;DHT22;39605;52.704;6.752;2022-10-16T05:07:56;12.90;99.90
53711;DHT22;39605;52.704;6.752;2022-10-16T05:10:22;12.80;99.90
53711;DHT22;39605;52.704;6.752;2022-10-16T05:12:48;12.80;99.90
53711;DHT22;39605;52.704;6.752;2022-10-16T05:15:15;12.80;99.90
53711;DHT22;39605;52.704;6.752;2022-10-16T05:17:40;12.70;99.90
53711;DHT22;39605;52.704;6.752;2022-10-16T05:20:07;12.80;99.90
53711;DHT22;39605;52.704;6.752;2022-10-16T05:22:33;12.80;99.90
53711;DHT22;39605;52.704;6.752;2022-10-16T05:24:59;12.80;99.90
53711;DHT22;39605;52.704;6.752;2022-10-16T05:27:25;13.10;99.90
53711;DHT22;39605;52.704;6.752;2022-10-16T05:29:50;12.70;99.90
53711;DHT22;39605;52.704;6.752;2022-10-16T05:32:17;12.70;99.90
53711;DHT22;39605;52.704;6.752;2022-10-16T05:34:43;12.60;99.90
53711;DHT22;39605;52.704;6.752;2022-10-16T05:37:10;12.80;99.90
53711;DHT22;39605;52.704;6.752;2022-10-16T05:39:37;12.70;99.90
53711;DHT22;39605;52.704;6.752;2022-10-16T05:42:04;12.70;99.90
53711;DHT22;39605;52.704;6.752;2022-10-16T05:44:30;12.70;99.90
53711;DHT22;39605;52.704;6.752;2022-10-16T05:46:56;13.10;99.90
53711;DHT22;39605;52.704;6.752;2022-10-16T05:49:22;12.70;99.90
53711;DHT22;39605;52.704;6.752;2022-10-16T05:51:47;12.70;99.90
53711;DHT22;39605;52.704;6.752;2022-10-16T05:54:13;12.70;99.90
53711;DHT22;39605;52.704;6.752;2022-10-16T05:56:39;12.70;99.90
53711;DHT22;39605;52.704;6.752;2022-10-16T05:59:05;12.80;99.90
53711;DHT22;39605;52.704;6.752;2022-10-16T06:01:31;12.70;99.90
53711;DHT22;39605;52.704;6.752;2022-10-16T06:03:57;12.70;99.90
53711;DHT22;39605;52.704;6.752;2022-10-16T06:06:25;13.00;99.90
53711;DHT22;39605;52.704;6.752;2022-10-16T06:08:56;12.60;99.90
53711;DHT22;39605;52.704;6.752;2022-10-16T06:11:24;12.60;99.90
53711;DHT22;39605;52.704;6.752;2022-10-16T06:13:55;12.70;99.90
53711;DHT22;39605;52.704;6.752;2022-10-16T06:16:22;12.70;99.90
53711;DHT22;39605;52.704;6.752;2022-10-16T06:18:51;12.70;99.90
53711;DHT22;39605;52.704;6.752;2022-10-16T06:21:18;12.70;99.90
53711;DHT22;39605;52.704;6.752;2022-10-16T06:23:45;12.70;99.90
53711;DHT22;39605;52.704;6.752;2022-10-16T06:26:16;12.60;99.90
53711;DHT22;39605;52.704;6.752;2022-10-16T06:28:42;12.70;99.90
53711;DHT22;39605;52.704;6.752;2022-10-16T06:31:09;12.80;99.90
53711;DHT22;39605;52.704;6.752;2022-10-16T06:33:36;12.80;99.90
53711;DHT22;39605;52.704;6.752;2022-10-16T06:36:07;12.90;99.90
53711;DHT22;39605;52.704;6.752;2022-10-16T06:38:35;12.80;99.90
53711;DHT22;39605;52.704;6.752;2022-10-16T06:41:02;12.80;99.90
53711;DHT22;39605;52.704;6.752;2022-10-16T06:43:31;13.00;99.90
53711;DHT22;39605;52.704;6.752;2022-10-16T06:45:58;12.90;99.90
53711;DHT22;39605;52.704;6.752;2022-10-16T06:48:25;12.80;99.90
53711;DHT22;39605;52.704;6.752;2022-10-16T06:53:39;12.80;99.90
53711;DHT22;39605;52.704;6.752;2022-10-16T06:56:13;12.90;99.90
53711;DHT22;39605;52.704;6.752;2022-10-16T06:58:40;12.90;99.90
53711;DHT22;39605;52.704;6.752;2022-10-16T07:01:06;12.90;99.90
53711;DHT22;39605;52.704;6.752;2022-10-16T07:03:32;12.90;99.90
53711;DHT22;39605;52.704;6.752;2022-10-16T07:06:02;13.00;99.90
53711;DHT22;39605;52.704;6.752;2022-10-16T07:08:31;12.90;99.90
53711;DHT22;39605;52.704;6.752;2022-10-16T07:11:01;13.10;99.90
53711;DHT22;39605;52.704;6.752;2022-10-16T07:13:28;13.10;99.90
53711;DHT22;39605;52.704;6.752;2022-10-16T07:15:54;13.00;99.90
53711;DHT22;39605;52.704;6.752;2022-10-16T07:18:20;13.10;99.90
53711;DHT22;39605;52.704;6.752;2022-10-16T07:20:46;13.20;99.90
53711;DHT22;39605;52.704;6.752;2022-10-16T07:23:11;13.30;99.90
53711;DHT22;39605;52.704;6.752;2022-10-16T07:25:37;13.30;99.90
53711;DHT22;39605;52.704;6.752;2022-10-16T07:28:03;13.40;99.90
53711;DHT22;39605;52.704;6.752;2022-10-16T07:30:28;13.30;99.90
53711;DHT22;39605;52.704;6.752;2022-10-16T07:32:54;13.40;99.90
53711;DHT22;39605;52.704;6.752;2022-10-16T07:35:20;13.40;99.90
53711;DHT22;39605;52.704;6.752;2022-10-16T07:37:46;13.60;99.90
53711;DHT22;39605;52.704;6.752;2022-10-16T07:40:12;13.60;99.90
53711;DHT22;39605;52.704;6.752;2022-10-16T07:42:37;13.60;99.90
53711;DHT22;39605;52.704;6.752;2022-10-16T07:45:03;13.80;99.90
53711;DHT22;39605;52.704;6.752;2022-10-16T07:47:29;13.70;99.90
53711;DHT22;39605;52.704;6.752;2022-10-16T07:49:55;13.80;99.90
53711;DHT22;39605;52.704;6.752;2022-10-16T07:52:21;13.80;99.90
53711;DHT22;39605;52.704;6.752;2022-10-16T07:54:47;13.80;99.90
53711;DHT22;39605;52.704;6.752;2022-10-16T07:57:12;13.90;99.90
53711;DHT22;39605;52.704;6.752;2022-10-16T07:59:45;13.80;99.90
53711;DHT22;39605;52.704;6.752;2022-10-16T08:02:10;13.80;99.90
53711;DHT22;39605;52.704;6.752;2022-10-16T08:04:36;14.10;99.90
53711;DHT22;39605;52.704;6.752;2022-10-16T08:07:02;13.90;99.90
53711;DHT22;39605;52.704;6.752;2022-10-16T08:09:27;14.00;99.90
53711;DHT22;39605;52.704;6.752;2022-10-16T08:11:53;13.90;99.90
53711;DHT22;39605;52.704;6.752;2022-10-16T08:14:19;13.90;99.90
53711;DHT22;39605;52.704;6.752;2022-10-16T08:16:44;14.80;99.90
53711;DHT22;39605;52.704;6.752;2022-10-16T08:19:10;14.10;99.90
53711;DHT22;39605;52.704;6.752;2022-10-16T08:21:35;14.20;99.90
53711;DHT22;39605;52.704;6.752;2022-10-16T08:24:01;14.20;99.90
53711;DHT22;39605;52.704;6.752;2022-10-16T08:26:27;14.20;99.90
53711;DHT22;39605;52.704;6.752;2022-10-16T08:28:54;14.20;99.90
53711;DHT22;39605;52.704;6.752;2022-10-16T08:31:20;14.20;99.90
53711;DHT22;39605;52.704;6.752;2022-10-16T08:33:46;14.30;99.90
53711;DHT22;39605;52.704;6.752;2022-10-16T08:36:13;14.40;99.90
53711;DHT22;39605;52.704;6.752;2022-10-16T08:38:39;14.50;99.90
53711;DHT22;39605;52.704;6.752;2022-10-16T08:49:21;15.30;99.90
53711;DHT22;39605;52.704;6.752;2022-10-16T08:51:50;15.50;99.90
53711;DHT22;39605;52.704;6.752;2022-10-16T08:54:36;15.40;99.90
53711;DHT22;39605;52.704;6.752;2022-10-16T08:57:20;15.30;99.90
53711;DHT22;39605;52.704;6.752;2022-10-16T08:59:46;15.40;99.90
53711;DHT22;39605;52.704;6.752;2022-10-16T09:02:38;15.50;99.90
53711;DHT22;39605;52.704;6.752;2022-10-16T09:05:57;15.60;99.90
53711;DHT22;39605;52.704;6.752;2022-10-16T09:08:26;15.90;99.90
53711;DHT22;39605;52.704;6.752;2022-10-16T09:13:48;16.50;99.90
53711;DHT22;39605;52.704;6.752;2022-10-16T09:16:32;16.80;99.90
53711;DHT22;39605;52.704;6.752;2022-10-16T09:21:47;17.30;99.90
53711;DHT22;39605;52.704;6.752;2022-10-16T09:24:14;17.40;99.90
53711;DHT22;39605;52.704;6.752;2022-10-16T09:26:41;17.60;99.90
53711;DHT22;39605;52.704;6.752;2022-10-16T09:29:08;17.80;99.90
53711;DHT22;39605;52.704;6.752;2022-10-16T09:31:36;17.90;99.90
53711;DHT22;39605;52.704;6.752;2022-10-16T09:34:03;18.10;99.90
53711;DHT22;39605;52.704;6.752;2022-10-16T09:36:43;18.20;99.90
53711;DHT22;39605;52.704;6.752;2022-10-16T09:39:11;18.50;99.90
53711;DHT22;39605;52.704;6.752;2022-10-16T09:41:42;18.70;99.90
53711;DHT22;39605;52.704;6.752;2022-10-16T09:44:31;18.70;99.90
53711;DHT22;39605;52.704;6.752;2022-10-16T09:47:05;18.70;99.90
53711;DHT22;39605;52.704;6.752;2022-10-16T09:49:33;19.00;99.90
53711;DHT22;39605;52.704;6.752;2022-10-16T09:52:11;18.90;99.90
53711;DHT22;39605;52.704;6.752;2022-10-16T09:54:51;18.90;99.90
53711;DHT22;39605;52.704;6.752;2022-10-16T09:57:17;18.80;99.90
53711;DHT22;39605;52.704;6.752;2022-10-16T09:59:54;18.70;99.90
53711;DHT22;39605;52.704;6.752;2022-10-16T10:02:29;18.70;99.90
53711;DHT22;39605;52.704;6.752;2022-10-16T10:04:55;18.70;99.90
53711;DHT22;39605;52.704;6.752;2022-10-16T10:07:31;18.70;99.90
53711;DHT22;39605;52.704;6.752;2022-10-16T10:10:02;18.80;99.90
53711;DHT22;39605;52.704;6.752;2022-10-16T10:12:30;18.90;99.90
53711;DHT22;39605;52.704;6.752;2022-10-16T10:15:11;18.80;99.90
53711;DHT22;39605;52.704;6.752;2022-10-16T10:18:17;18.80;99.90
53711;DHT22;39605;52.704;6.752;2022-10-16T10:20:58;19.00;99.90
53711;DHT22;39605;52.704;6.752;2022-10-16T10:23:26;19.10;99.90
53711;DHT22;39605;52.704;6.752;2022-10-16T10:26:03;19.10;99.90
53711;DHT22;39605;52.704;6.752;2022-10-16T10:28:44;19.30;99.90
53711;DHT22;39605;52.704;6.752;2022-10-16T10:31:27;19.40;99.90
53711;DHT22;39605;52.704;6.752;2022-10-16T10:36:53;19.50;99.90
53711;DHT22;39605;52.704;6.752;2022-10-16T10:39:30;19.30;99.90
53711;DHT22;39605;52.704;6.752;2022-10-16T10:42:09;19.10;99.90
53711;DHT22;39605;52.704;6.752;2022-10-16T10:45:04;18.80;99.90
53711;DHT22;39605;52.704;6.752;2022-10-16T10:50:49;18.50;99.90
53711;DHT22;39605;52.704;6.752;2022-10-16T10:53:31;18.70;99.90
53711;DHT22;39605;52.704;6.752;2022-10-16T10:56:13;18.80;99.90
53711;DHT22;39605;52.704;6.752;2022-10-16T10:58:50;18.80;99.90
53711;DHT22;39605;52.704;6.752;2022-10-16T11:01:26;18.70;99.90
53711;DHT22;39605;52.704;6.752;2022-10-16T11:07:16;18.50;99.90
53711;DHT22;39605;52.704;6.752;2022-10-16T11:09:50;18.40;99.90
53711;DHT22;39605;52.704;6.752;2022-10-16T11:12:32;18.40;99.90
53711;DHT22;39605;52.704;6.752;2022-10-16T11:18:19;18.40;99.90
53711;DHT22;39605;52.704;6.752;2022-10-16T11:20:47;18.30;99.90
53711;DHT22;39605;52.704;6.752;2022-10-16T11:23:25;18.30;99.90
53711;DHT22;39605;52.704;6.752;2022-10-16T11:25:53;18.50;99.90
53711;DHT22;39605;52.704;6.752;2022-10-16T11:31:00;18.60;99.90
53711;DHT22;39605;52.704;6.752;2022-10-16T11:33:38;18.60;99.90
53711;DHT22;39605;52.704;6.752;2022-10-16T11:36:30;18.60;99.90
53711;DHT22;39605;52.704;6.752;2022-10-16T11:39:08;18.40;99.90
53711;DHT22;39605;52.704;6.752;2022-10-16T11:47:45;18.30;99.90
53711;DHT22;39605;52.704;6.752;2022-10-16T11:50:26;18.40;99.90
53711;DHT22;39605;52.704;6.752;2022-10-16T11:55:20;18.30;99.90
53711;DHT22;39605;52.704;6.752;2022-10-16T11:57:57;18.50;99.90
53711;DHT22;39605;52.704;6.752;2022-10-16T12:00:33;18.80;99.90
53711;DHT22;39605;52.704;6.752;2022-10-16T12:08:36;19.60;99.90
53711;DHT22;39605;52.704;6.752;2022-10-16T12:14:05;20.40;99.90
53711;DHT22;39605;52.704;6.752;2022-10-16T12:16:32;20.60;99.90
53711;DHT22;39605;52.704;6.752;2022-10-16T12:19:15;20.70;99.90
53711;DHT22;39605;52.704;6.752;2022-10-16T12:21:43;20.20;99.90
53711;DHT22;39605;52.704;6.752;2022-10-16T12:24:38;19.90;99.90
53711;DHT22;39605;52.704;6.752;2022-10-16T12:27:30;19.80;99.90
53711;DHT22;39605;52.704;6.752;2022-10-16T12:29:59;19.30;99.90
53711;DHT22;39605;52.704;6.752;2022-10-16T12:32:36;18.90;99.90
53711;DHT22;39605;52.704;6.752;2022-10-16T12:35:04;18.70;99.90
53711;DHT22;39605;52.704;6.752;2022-10-16T12:37:36;18.70;99.90
53711;DHT22;39605;52.704;6.752;2022-10-16T12:40:15;18.80;99.90
53711;DHT22;39605;52.704;6.752;2022-10-16T12:42:42;18.70;99.90
53711;DHT22;39605;52.704;6.752;2022-10-16T12:47:53;18.30;99.90
53711;DHT22;39605;52.704;6.752;2022-10-16T12:52:59;18.40;99.90
53711;DHT22;39605;52.704;6.752;2022-10-16T12:55:26;18.50;99.90
53711;DHT22;39605;52.704;6.752;2022-10-16T12:58:09;18.60;99.90
53711;DHT22;39605;52.704;6.752;2022-10-16T13:00:50;18.50;99.90
53711;DHT22;39605;52.704;6.752;2022-10-16T13:11:52;18.30;99.90
53711;DHT22;39605;52.704;6.752;2022-10-16T13:25:14;18.90;99.90
53711;DHT22;39605;52.704;6.752;2022-10-16T13:30:27;18.80;99.40
53711;DHT22;39605;52.704;6.752;2022-10-16T13:33:01;18.80;99.90
53711;DHT22;39605;52.704;6.752;2022-10-16T13:35:31;18.90;99.90
53711;DHT22;39605;52.704;6.752;2022-10-16T13:38:13;18.90;99.90
53711;DHT22;39605;52.704;6.752;2022-10-16T13:43:19;18.90;99.90
53711;DHT22;39605;52.704;6.752;2022-10-16T13:46:00;18.90;99.90
53711;DHT22;39605;52.704;6.752;2022-10-16T13:48:28;18.90;99.90
53711;DHT22;39605;52.704;6.752;2022-10-16T13:51:17;18.80;99.90
53711;DHT22;39605;52.704;6.752;2022-10-16T13:53:43;18.90;99.90
53711;DHT22;39605;52.704;6.752;2022-10-16T13:56:12;18.90;99.90
53711;DHT22;39605;52.704;6.752;2022-10-16T13:58:41;19.00;99.90
53711;DHT22;39605;52.704;6.752;2022-10-16T14:01:20;19.00;99.90
53711;DHT22;39605;52.704;6.752;2022-10-16T14:03:48;18.80;99.90
53711;DHT22;39605;52.704;6.752;2022-10-16T14:06:17;18.60;99.90
53711;DHT22;39605;52.704;6.752;2022-10-16T14:08:47;18.50;99.90
53711;DHT22;39605;52.704;6.752;2022-10-16T14:11:21;18.50;99.90
53711;DHT22;39605;52.704;6.752;2022-10-16T14:13:48;18.50;99.90
53711;DHT22;39605;52.704;6.752;2022-10-16T14:16:35;18.50;99.90
53711;DHT22;39605;52.704;6.752;2022-10-16T14:19:03;18.40;99.90
53711;DHT22;39605;52.704;6.752;2022-10-16T14:21:30;18.40;99.90
53711;DHT22;39605;52.704;6.752;2022-10-16T14:23:57;18.30;99.90
53711;DHT22;39605;52.704;6.752;2022-10-16T14:26:27;18.20;99.90
53711;DHT22;39605;52.704;6.752;2022-10-16T14:29:14;18.10;99.90
53711;DHT22;39605;52.704;6.752;2022-10-16T14:31:40;18.10;99.90
53711;DHT22;39605;52.704;6.752;2022-10-16T14:37:01;18.10;99.90
53711;DHT22;39605;52.704;6.752;2022-10-16T14:39:33;18.00;99.90
53711;DHT22;39605;52.704;6.752;2022-10-16T14:41:59;18.00;99.90
53711;DHT22;39605;52.704;6.752;2022-10-16T14:44:32;18.10;99.90
53711;DHT22;39605;52.704;6.752;2022-10-16T14:47:06;17.90;99.90
53711;DHT22;39605;52.704;6.752;2022-10-16T14:49:32;17.90;99.90
53711;DHT22;39605;52.704;6.752;2022-10-16T14:51:58;17.80;99.90
53711;DHT22;39605;52.704;6.752;2022-10-16T14:54:24;17.80;99.90
53711;DHT22;39605;52.704;6.752;2022-10-16T14:56:53;17.90;99.90
53711;DHT22;39605;52.704;6.752;2022-10-16T14:59:27;17.70;99.90
53711;DHT22;39605;52.704;6.752;2022-10-16T15:01:54;17.70;99.90
53711;DHT22;39605;52.704;6.752;2022-10-16T15:04:19;17.60;99.90
53711;DHT22;39605;52.704;6.752;2022-10-16T15:06:45;17.60;99.90
53711;DHT22;39605;52.704;6.752;2022-10-16T15:09:11;17.50;99.90
53711;DHT22;39605;52.704;6.752;2022-10-16T15:11:37;17.50;99.90
53711;DHT22;39605;52.704;6.752;2022-10-16T15:14:03;17.50;99.90
53711;DHT22;39605;52.704;6.752;2022-10-16T15:16:29;17.50;99.90
53711;DHT22;39605;52.704;6.752;2022-10-16T15:18:55;17.40;99.90
53711;DHT22;39605;52.704;6.752;2022-10-16T15:21:28;17.60;99.90
53711;DHT22;39605;52.704;6.752;2022-10-16T15:23:54;17.30;99.90
53711;DHT22;39605;52.704;6.752;2022-10-16T15:26:22;17.30;99.90
53711;DHT22;39605;52.704;6.752;2022-10-16T15:28:48;17.20;99.90
53711;DHT22;39605;52.704;6.752;2022-10-16T15:31:14;17.20;99.90
53711;DHT22;39605;52.704;6.752;2022-10-16T15:33:39;17.10;99.90
53711;DHT22;39605;52.704;6.752;2022-10-16T15:36:05;17.10;99.90
53711;DHT22;39605;52.704;6.752;2022-10-16T15:38:31;17.00;99.90
53711;DHT22;39605;52.704;6.752;2022-10-16T15:40:57;17.00;99.90
53711;DHT22;39605;52.704;6.752;2022-10-16T15:43:23;17.00;99.90
53711;DHT22;39605;52.704;6.752;2022-10-16T15:46:06;16.90;99.90
53711;DHT22;39605;52.704;6.752;2022-10-16T15:48:33;16.90;99.90
53711;DHT22;39605;52.704;6.752;2022-10-16T15:51:00;16.80;99.90
53711;DHT22;39605;52.704;6.752;2022-10-16T15:53:29;17.00;99.90
53711;DHT22;39605;52.704;6.752;2022-10-16T15:55:55;16.70;99.90
53711;DHT22;39605;52.704;6.752;2022-10-16T15:58:21;16.70;99.90
53711;DHT22;39605;52.704;6.752;2022-10-16T16:00:58;16.60;99.90
53711;DHT22;39605;52.704;6.752;2022-10-16T16:03:26;16.40;99.90
53711;DHT22;39605;52.704;6.752;2022-10-16T16:05:52;16.40;99.90
53711;DHT22;39605;52.704;6.752;2022-10-16T16:08:18;16.30;99.90
53711;DHT22;39605;52.704;6.752;2022-10-16T16:10:44;16.20;99.90
53711;DHT22;39605;52.704;6.752;2022-10-16T16:13:10;16.00;99.90
53711;DHT22;39605;52.704;6.752;2022-10-16T16:15:39;16.00;99.90
53711;DHT22;39605;52.704;6.752;2022-10-16T16:18:05;15.90;99.90
53711;DHT22;39605;52.704;6.752;2022-10-16T16:20:31;15.70;99.90
53711;DHT22;39605;52.704;6.752;2022-10-16T16:22:57;15.70;99.90
53711;DHT22;39605;52.704;6.752;2022-10-16T16:25:22;15.60;99.90
53711;DHT22;39605;52.704;6.752;2022-10-16T16:27:48;16.60;99.90
53711;DHT22;39605;52.704;6.752;2022-10-16T16:30:14;15.40;99.90
53711;DHT22;39605;52.704;6.752;2022-10-16T16:32:39;15.40;99.90
53711;DHT22;39605;52.704;6.752;2022-10-16T16:35:05;15.30;99.90
53711;DHT22;39605;52.704;6.752;2022-10-16T16:37:31;15.20;99.90
53711;DHT22;39605;52.704;6.752;2022-10-16T16:39:57;15.10;99.90
53711;DHT22;39605;52.704;6.752;2022-10-16T16:42:26;15.10;99.90
53711;DHT22;39605;52.704;6.752;2022-10-16T16:44:55;15.10;99.90
53711;DHT22;39605;52.704;6.752;2022-10-16T16:47:22;15.10;99.90
53711;DHT22;39605;52.704;6.752;2022-10-16T16:49:47;15.10;99.90
53711;DHT22;39605;52.704;6.752;2022-10-16T16:52:14;15.00;99.90
53711;DHT22;39605;52.704;6.752;2022-10-16T16:54:40;15.00;99.90
53711;DHT22;39605;52.704;6.752;2022-10-16T16:57:06;14.90;99.90
53711;DHT22;39605;52.704;6.752;2022-10-16T16:59:31;14.80;99.90
53711;DHT22;39605;52.704;6.752;2022-10-16T17:01:59;14.80;99.90
53711;DHT22;39605;52.704;6.752;2022-10-16T17:04:25;14.80;99.90
53711;DHT22;39605;52.704;6.752;2022-10-16T17:06:53;14.70;99.90
53711;DHT22;39605;52.704;6.752;2022-10-16T17:09:19;14.70;99.90
53711;DHT22;39605;52.704;6.752;2022-10-16T17:11:45;14.60;99.90
53711;DHT22;39605;52.704;6.752;2022-10-16T17:14:12;14.50;99.90
53711;DHT22;39605;52.704;6.752;2022-10-16T17:16:39;14.60;99.90
53711;DHT22;39605;52.704;6.752;2022-10-16T17:19:07;14.40;99.90